SWA4536 KMDW-KSDF
Flight info
| Callsign | SWA4536 |
|---|---|
| Flight time | 0h 51m |
| Altitude | 38000 |
| Route | CMSKY CARYN CYBIL JMONY2 |
| Aircraft | B737/M-SDE2E3FGHIRWXY/LB1 |
Departure
| Time | 2026-05-07 02:38 |
|---|---|
| Airport | Chicago Midway International Airport (KMDW) |
Arrival
| Time | 2026-05-07 03:29 |
|---|---|
| Airport | Louisville Muhammad Ali International Airport (KSDF) |
| Time | Latitude | Longitude | Altitude | Speed | Heading |
|---|---|---|---|---|---|
| 2026-05-07 02:21 | 41.78698 | -87.74442 | 617 ft | 0 kts | 309° |
| 2026-05-07 02:31 | 41.78692 | -87.74432 | 617 ft | 2 kts | 309° |
| 2026-05-07 02:31 | 41.78682 | -87.74415 | 631 ft | 2 kts | 309° |
| 2026-05-07 02:32 | 41.78672 | -87.74398 | 631 ft | 2 kts | 302° |
| 2026-05-07 02:32 | 41.78666 | -87.74377 | 631 ft | 2 kts | 248° |
| 2026-05-07 02:32 | 41.78671 | -87.74366 | 618 ft | 1 kts | 223° |
| 2026-05-07 02:33 | 41.78671 | -87.74367 | 618 ft | 0 kts | 223° |
| 2026-05-07 02:34 | 41.78661 | -87.74379 | 631 ft | 4 kts | 225° |
| 2026-05-07 02:34 | 41.78637 | -87.74417 | 625 ft | 7 kts | 232° |
| 2026-05-07 02:34 | 41.78597 | -87.74475 | 622 ft | 10 kts | 224° |
| 2026-05-07 02:34 | 41.78549 | -87.74547 | 619 ft | 10 kts | 243° |
| 2026-05-07 02:35 | 41.78544 | -87.74643 | 616 ft | 10 kts | 270° |
| 2026-05-07 02:35 | 41.78570 | -87.74728 | 625 ft | 10 kts | 306° |
| 2026-05-07 02:35 | 41.78634 | -87.74780 | 623 ft | 12 kts | 351° |
| 2026-05-07 02:35 | 41.78718 | -87.74757 | 620 ft | 13 kts | 40° |
| 2026-05-07 02:36 | 41.78784 | -87.74674 | 618 ft | 13 kts | 43° |
| 2026-05-07 02:36 | 41.78848 | -87.74593 | 622 ft | 13 kts | 43° |
| 2026-05-07 02:36 | 41.78922 | -87.74500 | 621 ft | 15 kts | 44° |
| 2026-05-07 02:36 | 41.79001 | -87.74398 | 623 ft | 17 kts | 44° |
| 2026-05-07 02:37 | 41.79094 | -87.74276 | 615 ft | 18 kts | 42° |
| 2026-05-07 02:37 | 41.79184 | -87.74306 | 612 ft | 15 kts | 285° |
| 2026-05-07 02:37 | 41.79101 | -87.74434 | 620 ft | 38 kts | 222° |
| 2026-05-07 02:37 | 41.78702 | -87.74938 | 613 ft | 119 kts | 223° |
| 2026-05-07 02:38 | 41.77930 | -87.75908 | 698 ft | 179 kts | 229° |
| 2026-05-07 02:38 | 41.76976 | -87.77037 | 1684 ft | 186 kts | 220° |
| 2026-05-07 02:38 | 41.75764 | -87.77848 | 2381 ft | 206 kts | 200° |
| 2026-05-07 02:38 | 41.74261 | -87.78213 | 2881 ft | 236 kts | 191° |
| 2026-05-07 02:39 | 41.72501 | -87.78508 | 3481 ft | 266 kts | 191° |
| 2026-05-07 02:39 | 41.70701 | -87.78848 | 4775 ft | 265 kts | 192° |
| 2026-05-07 02:39 | 41.68873 | -87.79255 | 6028 ft | 269 kts | 195° |
| 2026-05-07 02:39 | 41.67025 | -87.79725 | 7181 ft | 272 kts | 197° |
| 2026-05-07 02:40 | 41.65154 | -87.80244 | 8281 ft | 277 kts | 197° |
| 2026-05-07 02:40 | 41.63257 | -87.80799 | 9407 ft | 281 kts | 198° |
| 2026-05-07 02:40 | 41.61327 | -87.81383 | 10453 ft | 286 kts | 199° |
| 2026-05-07 02:40 | 41.59373 | -87.81987 | 11517 ft | 288 kts | 199° |
| 2026-05-07 02:41 | 41.57413 | -87.82599 | 12628 ft | 290 kts | 200° |
| 2026-05-07 02:41 | 41.55444 | -87.83219 | 13744 ft | 292 kts | 201° |
| 2026-05-07 02:41 | 41.53459 | -87.83847 | 14702 ft | 294 kts | 202° |
| 2026-05-07 02:41 | 41.51463 | -87.84480 | 15667 ft | 297 kts | 202° |
| 2026-05-07 02:42 | 41.49431 | -87.85125 | 16593 ft | 301 kts | 202° |
| 2026-05-07 02:42 | 41.47381 | -87.85777 | 17556 ft | 304 kts | 203° |
| 2026-05-07 02:42 | 41.45298 | -87.86438 | 18420 ft | 311 kts | 203° |
| 2026-05-07 02:42 | 41.43186 | -87.87108 | 19233 ft | 314 kts | 204° |
| 2026-05-07 02:43 | 41.41067 | -87.87727 | 20128 ft | 319 kts | 200° |
| 2026-05-07 02:43 | 41.38823 | -87.88021 | 21005 ft | 327 kts | 197° |
| 2026-05-07 02:43 | 41.36535 | -87.88228 | 21843 ft | 331 kts | 197° |
| 2026-05-07 02:43 | 41.34232 | -87.88424 | 22752 ft | 332 kts | 198° |
| 2026-05-07 02:44 | 41.31926 | -87.88630 | 23652 ft | 333 kts | 198° |
| 2026-05-07 02:44 | 41.29596 | -87.88853 | 24363 ft | 334 kts | 199° |
| 2026-05-07 02:44 | 41.27287 | -87.89073 | 25247 ft | 331 kts | 199° |
| 2026-05-07 02:44 | 41.24979 | -87.89286 | 26004 ft | 335 kts | 197° |
| 2026-05-07 02:45 | 41.22613 | -87.89316 | 26643 ft | 345 kts | 195° |
| 2026-05-07 02:45 | 41.20162 | -87.89266 | 26915 ft | 361 kts | 193° |
| 2026-05-07 02:45 | 41.17612 | -87.89182 | 27351 ft | 370 kts | 193° |
| 2026-05-07 02:45 | 41.15020 | -87.89079 | 27925 ft | 375 kts | 193° |
| 2026-05-07 02:46 | 41.12399 | -87.88973 | 28564 ft | 377 kts | 193° |
| 2026-05-07 02:46 | 41.09778 | -87.88870 | 29258 ft | 377 kts | 193° |
| 2026-05-07 02:46 | 41.07165 | -87.88769 | 30092 ft | 374 kts | 194° |
| 2026-05-07 02:46 | 41.04570 | -87.88674 | 30704 ft | 373 kts | 194° |
| 2026-05-07 02:47 | 41.01967 | -87.88591 | 31118 ft | 377 kts | 194° |
| 2026-05-07 02:47 | 40.99295 | -87.88522 | 31194 ft | 390 kts | 194° |
| 2026-05-07 02:47 | 40.96551 | -87.88453 | 31352 ft | 400 kts | 194° |
| 2026-05-07 02:47 | 40.93747 | -87.88373 | 31619 ft | 406 kts | 193° |
| 2026-05-07 02:48 | 40.90915 | -87.88282 | 31993 ft | 408 kts | 193° |
| 2026-05-07 02:48 | 40.88064 | -87.88188 | 32048 ft | 412 kts | 193° |
| 2026-05-07 02:48 | 40.82413 | -87.87992 | 32050 ft | 404 kts | 194° |
| 2026-05-07 02:49 | 40.76818 | -87.87808 | 32054 ft | 402 kts | 194° |
| 2026-05-07 02:49 | 40.71218 | -87.87643 | 32052 ft | 402 kts | 194° |
| 2026-05-07 02:50 | 40.65621 | -87.87475 | 32052 ft | 402 kts | 195° |
| 2026-05-07 02:50 | 40.60044 | -87.87303 | 32054 ft | 400 kts | 195° |
| 2026-05-07 02:51 | 40.55424 | -87.87161 | 32054 ft | 398 kts | 195° |
| 2026-05-07 02:51 | 40.49901 | -87.86992 | 32057 ft | 396 kts | 195° |
| 2026-05-07 02:52 | 40.44418 | -87.86827 | 31782 ft | 396 kts | 196° |
| 2026-05-07 02:52 | 40.41640 | -87.86747 | 31144 ft | 396 kts | 195° |
| 2026-05-07 02:52 | 40.38908 | -87.86660 | 30627 ft | 390 kts | 195° |
| 2026-05-07 02:53 | 40.36197 | -87.86574 | 30038 ft | 386 kts | 195° |
| 2026-05-07 02:53 | 40.33530 | -87.86491 | 29394 ft | 382 kts | 195° |
| 2026-05-07 02:53 | 40.30905 | -87.86403 | 29155 ft | 371 kts | 195° |
| 2026-05-07 02:53 | 40.28357 | -87.86269 | 29078 ft | 361 kts | 195° |
| 2026-05-07 02:54 | 40.25898 | -87.86118 | 29060 ft | 347 kts | 195° |
| 2026-05-07 02:54 | 40.23531 | -87.85972 | 29061 ft | 333 kts | 196° |
| 2026-05-07 02:54 | 40.18831 | -87.85749 | 29090 ft | 352 kts | 196° |
| 2026-05-07 02:55 | 40.16337 | -87.85639 | 29090 ft | 364 kts | 195° |
| 2026-05-07 02:55 | 40.13794 | -87.85499 | 29069 ft | 365 kts | 195° |
| 2026-05-07 02:55 | 40.08654 | -87.85209 | 29085 ft | 377 kts | 195° |
| 2026-05-07 02:56 | 40.03280 | -87.84474 | 29065 ft | 419 kts | 181° |
| 2026-05-07 02:56 | 39.97737 | -87.82181 | 29058 ft | 416 kts | 180° |
| 2026-05-07 02:57 | 39.92246 | -87.79892 | 28884 ft | 407 kts | 181° |
| 2026-05-07 02:57 | 39.89543 | -87.78792 | 28466 ft | 406 kts | 181° |
| 2026-05-07 02:57 | 39.86867 | -87.77713 | 28165 ft | 396 kts | 181° |
| 2026-05-07 02:58 | 39.81582 | -87.75624 | 28209 ft | 408 kts | 181° |
| 2026-05-07 02:58 | 39.76070 | -87.73434 | 28175 ft | 411 kts | 181° |
| 2026-05-07 02:59 | 39.70608 | -87.70867 | 27803 ft | 445 kts | 166° |
| 2026-05-07 02:59 | 39.68015 | -87.68581 | 27571 ft | 453 kts | 161° |
| 2026-05-07 02:59 | 39.65470 | -87.66138 | 27204 ft | 453 kts | 159° |
| 2026-05-07 03:00 | 39.62954 | -87.63684 | 26924 ft | 449 kts | 159° |
| 2026-05-07 03:00 | 39.60454 | -87.61281 | 26661 ft | 444 kts | 160° |
| 2026-05-07 03:00 | 39.57970 | -87.58943 | 26394 ft | 440 kts | 160° |
| 2026-05-07 03:00 | 39.55489 | -87.56643 | 26147 ft | 437 kts | 160° |
| 2026-05-07 03:01 | 39.53014 | -87.54362 | 25899 ft | 436 kts | 160° |
| 2026-05-07 03:01 | 39.50550 | -87.52091 | 25639 ft | 434 kts | 160° |
| 2026-05-07 03:01 | 39.48131 | -87.49702 | 25394 ft | 446 kts | 153° |
| 2026-05-07 03:01 | 39.45853 | -87.46927 | 25156 ft | 452 kts | 149° |
| 2026-05-07 03:02 | 39.43646 | -87.44017 | 24914 ft | 454 kts | 148° |
| 2026-05-07 03:02 | 39.41462 | -87.41067 | 24677 ft | 453 kts | 148° |
| 2026-05-07 03:02 | 39.39283 | -87.38138 | 24441 ft | 451 kts | 148° |
| 2026-05-07 03:02 | 39.37094 | -87.35236 | 24207 ft | 449 kts | 149° |
| 2026-05-07 03:03 | 39.34935 | -87.32412 | 23985 ft | 447 kts | 149° |
| 2026-05-07 03:03 | 39.32746 | -87.29577 | 23747 ft | 444 kts | 149° |
| 2026-05-07 03:03 | 39.30573 | -87.26776 | 23561 ft | 440 kts | 149° |
| 2026-05-07 03:03 | 39.28414 | -87.23998 | 23258 ft | 434 kts | 149° |
| 2026-05-07 03:04 | 39.26284 | -87.21261 | 22789 ft | 429 kts | 149° |
| 2026-05-07 03:04 | 39.24181 | -87.18563 | 22246 ft | 424 kts | 149° |
| 2026-05-07 03:04 | 39.22131 | -87.15926 | 22092 ft | 408 kts | 149° |
| 2026-05-07 03:04 | 39.20167 | -87.13392 | 22046 ft | 391 kts | 150° |
| 2026-05-07 03:05 | 39.18278 | -87.10962 | 22039 ft | 377 kts | 151° |
| 2026-05-07 03:05 | 39.16414 | -87.08594 | 22059 ft | 382 kts | 152° |
| 2026-05-07 03:05 | 39.14445 | -87.06138 | 22077 ft | 406 kts | 151° |
| 2026-05-07 03:05 | 39.12363 | -87.03529 | 22067 ft | 425 kts | 149° |
| 2026-05-07 03:06 | 39.10255 | -87.00830 | 22047 ft | 430 kts | 149° |
| 2026-05-07 03:06 | 39.08144 | -86.98106 | 22039 ft | 429 kts | 149° |
| 2026-05-07 03:06 | 39.06046 | -86.95411 | 21963 ft | 423 kts | 149° |
| 2026-05-07 03:06 | 39.03971 | -86.92760 | 21574 ft | 418 kts | 149° |
| 2026-05-07 03:07 | 39.01912 | -86.90146 | 20943 ft | 416 kts | 149° |
| 2026-05-07 03:07 | 38.99852 | -86.87540 | 20544 ft | 415 kts | 149° |
| 2026-05-07 03:07 | 38.97625 | -86.85312 | 20387 ft | 392 kts | 166° |
| 2026-05-07 03:07 | 38.95208 | -86.83820 | 20301 ft | 382 kts | 170° |
| 2026-05-07 03:08 | 38.92812 | -86.82422 | 20072 ft | 376 kts | 171° |
| 2026-05-07 03:08 | 38.90444 | -86.81046 | 19618 ft | 371 kts | 171° |
| 2026-05-07 03:08 | 38.88091 | -86.79669 | 18948 ft | 373 kts | 170° |
| 2026-05-07 03:08 | 38.85742 | -86.78278 | 18615 ft | 368 kts | 169° |
| 2026-05-07 03:09 | 38.83426 | -86.76894 | 18322 ft | 367 kts | 169° |
| 2026-05-07 03:09 | 38.81110 | -86.75508 | 18024 ft | 369 kts | 169° |
| 2026-05-07 03:09 | 38.78775 | -86.74110 | 17732 ft | 373 kts | 168° |
| 2026-05-07 03:09 | 38.76424 | -86.72700 | 17440 ft | 373 kts | 168° |
| 2026-05-07 03:10 | 38.74085 | -86.71292 | 17157 ft | 370 kts | 168° |
| 2026-05-07 03:10 | 38.71768 | -86.69898 | 16882 ft | 367 kts | 168° |
| 2026-05-07 03:10 | 38.69460 | -86.68509 | 16589 ft | 366 kts | 167° |
| 2026-05-07 03:10 | 38.67187 | -86.67140 | 16300 ft | 365 kts | 167° |
| 2026-05-07 03:11 | 38.64865 | -86.65742 | 16002 ft | 364 kts | 167° |
| 2026-05-07 03:11 | 38.62607 | -86.64383 | 15710 ft | 363 kts | 167° |
| 2026-05-07 03:11 | 38.60322 | -86.63010 | 15441 ft | 362 kts | 167° |
| 2026-05-07 03:11 | 38.58045 | -86.61636 | 15151 ft | 363 kts | 165° |
| 2026-05-07 03:12 | 38.55927 | -86.59720 | 14760 ft | 390 kts | 143° |
| 2026-05-07 03:12 | 38.54144 | -86.57063 | 14337 ft | 396 kts | 137° |
| 2026-05-07 03:12 | 38.52412 | -86.54352 | 13852 ft | 390 kts | 137° |
| 2026-05-07 03:12 | 38.50697 | -86.51722 | 13350 ft | 381 kts | 137° |
| 2026-05-07 03:13 | 38.49003 | -86.49171 | 12869 ft | 373 kts | 137° |
| 2026-05-07 03:13 | 38.47342 | -86.46646 | 12437 ft | 370 kts | 137° |
| 2026-05-07 03:13 | 38.45703 | -86.44132 | 12005 ft | 366 kts | 136° |
| 2026-05-07 03:13 | 38.44084 | -86.41649 | 11582 ft | 363 kts | 136° |
| 2026-05-07 03:14 | 38.42472 | -86.39180 | 11152 ft | 363 kts | 135° |
| 2026-05-07 03:14 | 38.40862 | -86.36722 | 10722 ft | 358 kts | 135° |
| 2026-05-07 03:14 | 38.37731 | -86.31962 | 9898 ft | 340 kts | 135° |
| 2026-05-07 03:15 | 38.36273 | -86.29742 | 9881 ft | 313 kts | 135° |
| 2026-05-07 03:15 | 38.34899 | -86.27658 | 9278 ft | 317 kts | 135° |
| 2026-05-07 03:15 | 38.33473 | -86.25514 | 8776 ft | 317 kts | 134° |
| 2026-05-07 03:15 | 38.32051 | -86.23380 | 8365 ft | 314 kts | 134° |
| 2026-05-07 03:16 | 38.30651 | -86.21278 | 7981 ft | 307 kts | 133° |
| 2026-05-07 03:16 | 38.29295 | -86.19241 | 7605 ft | 296 kts | 133° |
| 2026-05-07 03:16 | 38.27986 | -86.17277 | 7267 ft | 287 kts | 132° |
| 2026-05-07 03:16 | 38.26710 | -86.15364 | 6964 ft | 279 kts | 131° |
| 2026-05-07 03:17 | 38.25477 | -86.13507 | 6806 ft | 272 kts | 131° |
| 2026-05-07 03:17 | 38.24250 | -86.11655 | 6657 ft | 274 kts | 131° |
| 2026-05-07 03:17 | 38.23022 | -86.09801 | 6500 ft | 276 kts | 131° |
| 2026-05-07 03:17 | 38.21786 | -86.07937 | 6328 ft | 276 kts | 130° |
| 2026-05-07 03:18 | 38.20555 | -86.06083 | 6152 ft | 273 kts | 130° |
| 2026-05-07 03:18 | 38.19332 | -86.04242 | 6033 ft | 272 kts | 130° |
| 2026-05-07 03:18 | 38.18111 | -86.02402 | 5992 ft | 272 kts | 130° |
| 2026-05-07 03:18 | 38.16893 | -86.00567 | 5986 ft | 271 kts | 130° |
| 2026-05-07 03:19 | 38.15674 | -85.98730 | 5999 ft | 271 kts | 130° |
| 2026-05-07 03:19 | 38.14460 | -85.96901 | 5998 ft | 272 kts | 130° |
| 2026-05-07 03:19 | 38.13241 | -85.95066 | 5991 ft | 272 kts | 130° |
| 2026-05-07 03:19 | 38.12013 | -85.93218 | 5997 ft | 273 kts | 130° |
| 2026-05-07 03:20 | 38.10789 | -85.91377 | 6000 ft | 273 kts | 130° |
| 2026-05-07 03:20 | 38.09577 | -85.89555 | 5988 ft | 273 kts | 130° |
| 2026-05-07 03:20 | 38.08353 | -85.87714 | 5995 ft | 273 kts | 130° |
| 2026-05-07 03:20 | 38.07130 | -85.85876 | 5985 ft | 269 kts | 130° |
| 2026-05-07 03:21 | 38.05952 | -85.84108 | 5850 ft | 256 kts | 130° |
| 2026-05-07 03:21 | 38.04824 | -85.82417 | 5632 ft | 245 kts | 130° |
| 2026-05-07 03:21 | 38.03740 | -85.80793 | 5258 ft | 237 kts | 130° |
| 2026-05-07 03:21 | 38.02646 | -85.79266 | 4864 ft | 231 kts | 141° |
| 2026-05-07 03:22 | 38.01213 | -85.78419 | 4492 ft | 227 kts | 163° |
| 2026-05-07 03:22 | 37.99668 | -85.77889 | 4020 ft | 232 kts | 165° |
| 2026-05-07 03:22 | 37.98108 | -85.77383 | 3564 ft | 231 kts | 165° |
| 2026-05-07 03:22 | 37.96643 | -85.76618 | 3101 ft | 227 kts | 137° |
| 2026-05-07 03:23 | 37.95891 | -85.74940 | 3045 ft | 221 kts | 100° |
| 2026-05-07 03:23 | 37.95878 | -85.73017 | 3004 ft | 218 kts | 78° |
| 2026-05-07 03:23 | 37.96309 | -85.71201 | 2966 ft | 214 kts | 59° |
| 2026-05-07 03:23 | 37.97289 | -85.69840 | 2984 ft | 207 kts | 32° |
| 2026-05-07 03:24 | 37.98564 | -85.69165 | 2983 ft | 191 kts | 16° |
| 2026-05-07 03:24 | 37.99827 | -85.68965 | 2979 ft | 177 kts | 351° |
| 2026-05-07 03:24 | 38.00952 | -85.69186 | 2963 ft | 151 kts | 352° |
| 2026-05-07 03:24 | 38.01929 | -85.69394 | 2874 ft | 134 kts | 349° |
| 2026-05-07 03:25 | 38.02807 | -85.69642 | 2666 ft | 126 kts | 347° |
| 2026-05-07 03:25 | 38.03659 | -85.69908 | 2503 ft | 128 kts | 347° |
| 2026-05-07 03:25 | 38.04522 | -85.70187 | 2423 ft | 127 kts | 346° |
| 2026-05-07 03:25 | 38.05368 | -85.70465 | 2401 ft | 126 kts | 346° |
| 2026-05-07 03:26 | 38.06212 | -85.70744 | 2386 ft | 125 kts | 346° |
| 2026-05-07 03:26 | 38.07067 | -85.71027 | 2288 ft | 127 kts | 346° |
| 2026-05-07 03:26 | 38.07918 | -85.71309 | 2125 ft | 125 kts | 346° |
| 2026-05-07 03:26 | 38.08749 | -85.71585 | 1945 ft | 122 kts | 346° |
| 2026-05-07 03:27 | 38.09578 | -85.71860 | 1788 ft | 124 kts | 346° |
| 2026-05-07 03:27 | 38.10409 | -85.72134 | 1618 ft | 124 kts | 346° |
| 2026-05-07 03:27 | 38.11242 | -85.72411 | 1460 ft | 125 kts | 345° |
| 2026-05-07 03:27 | 38.12092 | -85.72692 | 1279 ft | 127 kts | 345° |
| 2026-05-07 03:28 | 38.12945 | -85.72975 | 1104 ft | 127 kts | 345° |
| 2026-05-07 03:28 | 38.13793 | -85.73256 | 930 ft | 126 kts | 344° |
| 2026-05-07 03:28 | 38.14641 | -85.73537 | 754 ft | 125 kts | 343° |
| 2026-05-07 03:28 | 38.15484 | -85.73819 | 570 ft | 124 kts | 343° |
| 2026-05-07 03:29 | 38.16268 | -85.74076 | 475 ft | 108 kts | 345° |
| 2026-05-07 03:29 | 38.16850 | -85.74269 | 477 ft | 64 kts | 345° |
| 2026-05-07 03:29 | 38.17186 | -85.74380 | 476 ft | 35 kts | 346° |
| 2026-05-07 03:29 | 38.17330 | -85.74382 | 475 ft | 16 kts | 40° |
| 2026-05-07 03:30 | 38.17402 | -85.74312 | 479 ft | 0 kts | 35° |
| 2026-05-07 03:30 | 38.17402 | -85.74311 | 479 ft | 0 kts | 35° |
| 2026-05-07 03:30 | 38.17429 | -85.74302 | 479 ft | 8 kts | 1° |
| 2026-05-07 03:31 | 38.17493 | -85.74319 | 486 ft | 11 kts | 345° |
| 2026-05-07 03:31 | 38.17576 | -85.74346 | 483 ft | 13 kts | 345° |
| 2026-05-07 03:31 | 38.17672 | -85.74377 | 482 ft | 15 kts | 346° |
| 2026-05-07 03:31 | 38.17779 | -85.74413 | 490 ft | 16 kts | 345° |
| 2026-05-07 03:32 | 38.17883 | -85.74447 | 487 ft | 15 kts | 346° |
| 2026-05-07 03:32 | 38.17985 | -85.74481 | 486 ft | 13 kts | 346° |
| 2026-05-07 03:32 | 38.18045 | -85.74435 | 487 ft | 12 kts | 89° |
| 2026-05-07 03:32 | 38.18016 | -85.74328 | 484 ft | 14 kts | 111° |
| 2026-05-07 03:33 | 38.18016 | -85.74214 | 484 ft | 11 kts | 46° |
| 2026-05-07 03:33 | 38.18080 | -85.74209 | 482 ft | 9 kts | 4° |
| 2026-05-07 03:33 | 38.18124 | -85.74161 | 482 ft | 8 kts | 59° |
| 2026-05-07 03:33 | 38.18154 | -85.74098 | 484 ft | 8 kts | 58° |
| 2026-05-07 03:34 | 38.18184 | -85.74029 | 485 ft | 10 kts | 60° |
| 2026-05-07 03:34 | 38.18220 | -85.73972 | 481 ft | 7 kts | 12° |
| 2026-05-07 03:34 | 38.18266 | -85.74000 | 482 ft | 8 kts | 305° |
| 2026-05-07 03:34 | 38.18272 | -85.74056 | 487 ft | 3 kts | 274° |
| 2026-05-07 03:35 | 38.18272 | -85.74063 | 487 ft | 0 kts | 273° |